メインページ
METAR-TAF:

METAR-TAF

空港 :

ウシュアイア国際空港

ウシュアイア, アルゼンチン

緯度: 54-48S, 経度: 068-19W, 海抜: 16m

現時点の気象観測

当レポートは30分前の01:00(UTC)に作成
西の風 19kt
気温 3°C
湿度 52%
気圧 1004 hPa
視程10km以上
1,500メートル以下は雲なし、積乱雲なし

METAR: SAWH 190100Z 27019KT CAVOK 03/M06 Q1004

時間: 22:30 (01:30 UTC)

予報

当レポートは2時間30分前の23:00(UTC)に作成
予報は19日の 00時(UTC)から 19日の 24時(UTC)まで有効
西の風 12kt
視程10km以上
高度2500ftの千切れ雲あり
19日の 00時(UTC)から 19日の 04時(UTC)まで一時的に
西の風 25kt
視程: 5000m
高度1500ftの千切れ雲あり
にわか雨
19日の 12時(UTC)から 19日の 14時(UTC)まで徐々に
西/北西の風 25kt、最大37ktの突風を伴う
高度2000ftの千切れ雲あり
高度3000ftの千切れ雲あり
19日の 15時(UTC)から 19日の 24時(UTC)まで一時的に
西の風 30kt、最大45ktの突風を伴う
視程: 5000m
にわか雨

TAF: SAWH 182300Z 1900/1924 27012KT 9999 BKN025 TX07/1919Z TN02/1910Z TEMPO 1900/1904 27025KT 5000 SHRA BKN015 BECMG 1912/1914 29025G37KT BKN020 BKN030 TEMPO 1915/1924 5000 27030G45KT 5000 SHRA

4,000以上の空港の気象観測と天気予報(METAR報とTAF報)

利用可能な観測所は地図上に黄色い丸と赤い丸で示す。

丸の上にカーソルを重ねると観測所名を参照できる。

次にクリックすると気象観測と天気予報を参照できる。

マップの切り替え:黒色「×」印の緑ボタンをクリックして拡大、「-」印の緑ボタンをクリックして縮小、緑色の三角印をクリックして隣りの地図に切り替え


METAR-TAF: